Vanity Corner, Arkansas
Current Conditions -  °F | °C
As of 4:56 AM on Thursday 18 Dec 2014 (Local Time) from KSRC Reporting Station
Light Rain Light Rain  
Wind Chill: 32°   Ceiling: 700
Heat Index: 37°   Visibility: 10mi
Dew Point: 35°   Wind: 7mph
Humidity: 93%   Direction: 80°E
Pressure: 30.22"   Gusts: NA
Location:  35.2662°N, 91.8491°W
Report Text: KSRC 181056Z AUTO 08006KT 10SM -RA OVC007 03/02 A3022 RMK AO2 SLP240 P0001 T00280017 TSNO
Loading
Personal Weather Stations






























Interactive Weather Map New forecast layout! Learn more

10-Day Weather Forecast

Advertisements
Track Severe Weather on mobile